Time;durP1;ratioP1;P1;durP2;ratioP2;P2;SDS_P1;SDS_P2;PMS_P1;PMS_P2;Temp;Humidity;BMP_temperature;BMP_pressure;BME280_temperature;BME280_humidity;BME280_pressure;Samples;Min_cycle;Max_cycle;Signal;HPM_P1;HPM_P2
2023/10/08 00:02:59;;;;;;;7.72;3.15;;;11.60;99.90;;;10.82;100.00;102106.75;4150742;28;20137;-80
2023/10/08 00:05:00;;;;;;;7.85;3.10;;;11.50;99.90;;;10.83;100.00;102104.97;4185390;28;20496;-81
2023/10/08 00:07:00;;;;;;;7.55;3.42;;;11.50;99.90;;;10.83;100.00;102108.44;4187529;28;20029;-81
2023/10/08 00:09:07;;;;;;;5.05;3.13;;;11.50;99.90;;;10.83;100.00;102107.59;4202825;28;20020;-81
2023/10/08 00:11:10;;;;;;;5.55;3.30;;;11.50;99.90;;;10.85;100.00;102109.16;4185740;28;20025;-80
2023/10/08 00:13:12;;;;;;;8.10;3.50;;;11.50;99.90;;;10.85;100.00;102103.88;4184657;28;20021;-80
2023/10/08 00:15:13;;;;;;;6.25;3.17;;;11.50;99.90;;;10.84;100.00;102099.53;4186227;28;20025;-80
2023/10/08 00:17:15;;;;;;;6.32;3.00;;;11.50;99.90;;;10.82;100.00;102103.28;4177163;28;20107;-80
2023/10/08 00:19:18;;;;;;;6.60;3.28;;;11.50;99.90;;;10.81;100.00;102110.34;4186097;28;20099;-81
2023/10/08 00:21:27;;;;;;;6.65;3.08;;;11.50;99.90;;;10.79;100.00;102109.63;4183889;28;20032;-81
2023/10/08 00:23:28;;;;;;;6.60;3.10;;;11.50;99.90;;;10.79;100.00;102107.00;4185491;28;20374;-81
2023/10/08 00:25:30;;;;;;;6.32;4.18;;;11.50;99.90;;;10.80;100.00;102103.41;4178336;28;20032;-80
2023/10/08 00:27:38;;;;;;;6.50;3.60;;;11.50;99.90;;;10.80;100.00;102105.22;4185938;28;20032;-81
2023/10/08 00:29:40;;;;;;;7.80;3.40;;;11.50;99.90;;;10.77;100.00;102092.25;4185247;28;20488;-80
2023/10/08 00:31:41;;;;;;;4.80;2.85;;;11.50;99.90;;;10.79;100.00;102106.16;4187352;28;20488;-80
2023/10/08 00:33:44;;;;;;;3.85;2.70;;;11.40;99.90;;;10.75;100.00;102107.38;4187164;28;20021;-80
2023/10/08 00:35:45;;;;;;;6.50;3.55;;;11.50;99.90;;;10.73;100.00;102109.28;4193266;28;20040;-80
2023/10/08 00:37:48;;;;;;;9.60;4.03;;;11.40;99.90;;;10.71;100.00;102112.06;4186973;28;20087;-80
2023/10/08 00:39:49;;;;;;;7.13;3.40;;;11.40;99.90;;;10.72;100.00;102107.63;4185670;28;20472;-80
2023/10/08 00:41:58;;;;;;;4.93;3.33;;;11.40;99.90;;;10.72;100.00;102105.00;4179030;28;20033;-80
2023/10/08 00:44:05;;;;;;;6.10;3.33;;;11.40;99.90;;;10.73;100.00;102118.06;4186777;28;20029;-80
2023/10/08 00:46:18;;;;;;;5.70;3.05;;;11.40;99.90;;;10.71;100.00;102100.66;4187020;28;20064;-80
2023/10/08 00:48:22;;;;;;;5.22;3.50;;;11.40;99.90;;;10.70;100.00;102112.19;4184387;28;20045;-80
2023/10/08 00:50:31;;;;;;;3.75;2.60;;;11.40;99.90;;;10.68;100.00;102106.19;4185374;28;20103;-81
2023/10/08 00:52:57;;;;;;;7.70;4.10;;;11.40;99.90;;;10.67;100.00;102109.78;4186585;28;20029;-80
2023/10/08 00:57:05;;;;;;;5.47;3.47;;;11.40;99.90;;;10.65;100.00;102099.38;4184423;28;20029;-81
2023/10/08 00:59:06;;;;;;;5.43;3.53;;;11.40;99.90;;;10.67;100.00;102105.34;4186592;28;20476;-80
2023/10/08 01:01:10;;;;;;;6.88;3.63;;;11.40;99.90;;;10.65;100.00;102103.81;4185647;28;20021;-80
2023/10/08 01:03:14;;;;;;;5.88;3.47;;;11.40;99.90;;;10.61;100.00;102100.56;4185249;28;20017;-80
2023/10/08 01:05:25;;;;;;;5.95;3.17;;;11.30;99.90;;;10.58;100.00;102095.53;4184321;28;20056;-80
2023/10/08 01:07:30;;;;;;;8.15;3.75;;;11.30;99.90;;;10.55;100.00;102090.50;4184407;28;20028;-80
2023/10/08 01:09:34;;;;;;;6.32;3.55;;;11.30;99.90;;;10.53;100.00;102088.00;4179630;28;20032;-80
2023/10/08 01:11:49;;;;;;;6.65;3.47;;;11.20;99.90;;;10.53;100.00;102084.50;4185342;28;20024;-80
2023/10/08 01:13:50;;;;;;;5.72;2.78;;;11.20;99.90;;;10.50;100.00;102079.47;4186457;28;20037;-80
2023/10/08 01:15:51;;;;;;;7.18;3.35;;;11.20;99.90;;;10.49;100.00;102078.66;4186324;28;20054;-80
2023/10/08 01:18:00;;;;;;;5.07;3.42;;;11.20;99.90;;;10.50;100.00;102084.75;4186448;28;20029;-80
2023/10/08 01:20:08;;;;;;;8.50;3.83;;;11.20;99.90;;;10.52;100.00;102085.47;4186448;28;20021;-81
2023/10/08 01:22:16;;;;;;;4.53;3.22;;;11.20;99.90;;;10.51;100.00;102091.72;4186336;28;20029;-81
2023/10/08 01:24:18;;;;;;;4.68;3.38;;;11.20;99.90;;;10.49;100.00;102091.00;4186277;28;20018;-80
2023/10/08 01:26:22;;;;;;;6.10;3.33;;;11.20;99.90;;;10.46;100.00;102086.81;4186158;28;20473;-79
2023/10/08 01:28:28;;;;;;;;;;;11.20;99.90;;;10.41;100.00;102085.50;4184896;28;20037;-80
2023/10/08 01:30:40;;;;;;;4.03;2.63;;;11.20;99.90;;;10.45;100.00;102087.75;4176554;28;20342;-80
2023/10/08 01:32:43;;;;;;;5.20;2.70;;;11.20;99.90;;;10.45;100.00;102079.03;4186086;28;20090;-80
2023/10/08 01:34:47;;;;;;;5.90;3.20;;;11.20;99.90;;;10.46;100.00;102075.41;4184980;28;20051;-81
2023/10/08 01:36:48;;;;;;;5.45;3.20;;;11.20;99.90;;;10.44;100.00;102072.91;4186222;28;20027;-80
2023/10/08 01:38:49;;;;;;;4.88;2.90;;;11.20;99.90;;;10.44;100.00;102075.53;4186090;28;20087;-81
2023/10/08 01:40:51;;;;;;;7.05;3.03;;;11.20;99.90;;;10.42;100.00;102074.00;4184695;28;20045;-81
2023/10/08 01:42:53;;;;;;;5.43;3.22;;;11.20;99.90;;;10.43;100.00;102067.72;4186035;28;20025;-80
2023/10/08 01:44:57;;;;;;;5.70;3.33;;;11.10;99.90;;;10.38;100.00;102065.47;4185770;28;20033;-81
2023/10/08 01:46:59;;;;;;;4.35;2.58;;;11.10;99.90;;;10.37;100.00;102069.06;4184743;28;20467;-81
2023/10/08 01:49:06;;;;;;;4.90;3.13;;;11.10;99.90;;;10.34;100.00;102066.66;4185720;28;20055;-81
2023/10/08 01:51:11;;;;;;;4.80;3.25;;;11.10;99.90;;;10.36;100.00;102063.94;4185909;28;20025;-81
2023/10/08 01:53:15;;;;;;;6.82;3.40;;;11.00;99.90;;;10.32;100.00;102055.41;4185823;28;20025;-81
2023/10/08 01:55:19;;;;;;;5.25;3.25;;;11.00;99.90;;;10.33;100.00;102067.66;4184653;28;20024;-80
2023/10/08 01:57:20;;;;;;;5.90;3.38;;;11.00;99.90;;;10.33;100.00;102072.09;4185658;28;20029;-81
2023/10/08 01:59:21;;;;;;;5.25;3.15;;;11.00;99.90;;;10.29;100.00;102062.72;4185644;28;20028;-81
2023/10/08 02:01:22;;;;;;;6.45;3.30;;;11.00;99.90;;;10.27;100.00;102056.75;4185286;28;20028;-81
2023/10/08 02:03:23;;;;;;;5.40;2.90;;;11.00;99.90;;;10.25;100.00;102059.50;4184369;28;20191;-81
2023/10/08 02:05:23;;;;;;;5.35;3.85;;;11.00;99.90;;;10.21;100.00;102057.22;4185544;28;20036;-80
2023/10/08 02:07:24;;;;;;;5.78;3.10;;;11.00;99.90;;;10.18;100.00;102060.97;4185756;28;20017;-81
2023/10/08 02:09:26;;;;;;;12.48;3.28;;;10.90;99.90;;;10.18;100.00;102053.03;4184461;28;20400;-81
2023/10/08 02:11:27;;;;;;;6.40;3.67;;;10.90;99.90;;;10.18;100.00;102062.75;4180455;28;20088;-81
2023/10/08 02:13:28;;;;;;;7.55;3.08;;;10.90;99.90;;;10.17;100.00;102056.63;4185226;28;20025;-80
2023/10/08 02:15:29;;;;;;;4.70;2.92;;;10.90;99.90;;;10.15;100.00;102053.28;4185732;28;20028;-80
2023/10/08 02:17:30;;;;;;;6.18;3.60;;;10.90;99.90;;;10.19;100.00;102056.50;4184338;28;20028;-80
2023/10/08 02:19:32;;;;;;;4.80;3.35;;;10.90;99.90;;;10.19;100.00;102053.84;4180903;28;20484;-81
2023/10/08 02:21:33;;;;;;;5.25;3.25;;;10.90;99.90;;;10.19;100.00;102053.84;4185408;28;20033;-81
2023/10/08 02:23:34;;;;;;;9.15;3.75;;;10.90;99.90;;;10.18;100.00;102050.41;4185501;28;20114;-81
2023/10/08 02:25:35;;;;;;;5.72;3.63;;;10.90;99.90;;;10.16;100.00;102047.03;4184196;28;20017;-80
2023/10/08 02:27:37;;;;;;;6.43;3.08;;;10.90;99.90;;;10.18;100.00;102041.66;4183731;28;20017;-80
2023/10/08 02:29:39;;;;;;;5.63;3.22;;;10.80;99.90;;;10.17;100.00;102039.97;4183833;28;20116;-81
2023/10/08 02:31:41;;;;;;;5.53;3.05;;;10.80;99.90;;;10.14;100.00;102034.94;4185240;28;20036;-80
2023/10/08 02:33:42;;;;;;;7.00;3.40;;;10.80;99.90;;;10.10;100.00;102034.31;4185370;28;20025;-81
2023/10/08 02:35:47;;;;;;;5.97;3.72;;;10.80;99.90;;;10.08;100.00;102022.22;4185125;28;20025;-80
2023/10/08 02:37:47;;;;;;;6.03;3.70;;;10.80;99.90;;;10.08;100.00;102027.47;4184003;28;20079;-80
2023/10/08 02:39:49;;;;;;;7.00;3.75;;;10.80;99.90;;;10.04;100.00;102021.59;4174400;28;20025;-81
2023/10/08 02:41:49;;;;;;;7.03;3.20;;;10.80;99.90;;;10.02;100.00;102021.75;4191514;28;20041;-80
2023/10/08 02:43:51;;;;;;;8.25;3.40;;;10.70;99.90;;;9.99;100.00;102018.50;4180929;28;20047;-80
2023/10/08 02:45:52;;;;;;;8.35;3.25;;;10.70;99.90;;;9.94;100.00;102013.59;4185109;28;20025;-80
2023/10/08 02:47:55;;;;;;;5.35;3.40;;;10.70;99.90;;;9.91;100.00;102011.22;4185343;28;20025;-80
2023/10/08 02:49:55;;;;;;;6.43;3.50;;;10.70;99.90;;;9.94;100.00;102008.34;4183983;28;20029;-80
2023/10/08 02:51:58;;;;;;;7.38;3.78;;;10.70;99.90;;;9.91;100.00;102011.22;4185163;28;20082;-80
2023/10/08 02:53:59;;;;;;;4.75;3.17;;;10.70;99.90;;;9.87;100.00;102007.13;4185051;28;20056;-80
2023/10/08 02:55:59;;;;;;;7.90;3.38;;;10.60;99.90;;;9.84;100.00;102010.00;4185278;28;20032;-81
2023/10/08 02:58:03;;;;;;;6.20;3.45;;;10.60;99.90;;;9.80;100.00;102013.00;4184878;28;20040;-80
2023/10/08 03:00:11;;;;;;;5.75;3.58;;;10.60;99.90;;;9.77;100.00;102019.34;4183842;28;20056;-80
2023/10/08 03:02:18;;;;;;;7.18;3.40;;;10.50;99.90;;;9.74;100.00;102016.94;4170757;28;20043;-80
2023/10/08 03:04:19;;;;;;;8.57;3.75;;;10.50;99.90;;;9.76;100.00;102022.13;4200322;28;20033;-80
2023/10/08 03:06:20;;;;;;;5.07;3.00;;;10.50;99.90;;;9.73;100.00;102015.28;4185038;28;20068;-80
2023/10/08 03:08:21;;;;;;;6.82;3.40;;;10.40;99.90;;;9.72;100.00;102018.88;4184912;28;20558;-80
2023/10/08 03:10:22;;;;;;;4.50;3.00;;;10.40;99.90;;;9.69;100.00;102011.22;4183695;28;20021;-80
2023/10/08 03:12:25;;;;;;;4.47;2.70;;;10.40;99.90;;;9.65;100.00;102006.28;4184019;28;20032;-80
2023/10/08 03:14:26;;;;;;;3.83;2.67;;;10.40;99.90;;;9.65;100.00;102012.38;4177752;28;20401;-80
2023/10/08 03:16:33;;;;;;;12.10;3.28;;;10.40;99.90;;;9.58;100.00;102007.72;4182608;28;20025;-81
2023/10/08 03:18:42;;;;;;;5.85;3.15;;;10.40;99.90;;;9.58;100.00;102008.56;4185148;28;20417;-81
2023/10/08 03:20:45;;;;;;;6.32;3.03;;;10.30;99.90;;;9.54;100.00;102007.13;4183890;28;20021;-81
2023/10/08 03:22:46;;;;;;;4.72;3.30;;;10.30;99.90;;;9.45;100.00;102000.78;4184852;28;20400;-81
2023/10/08 03:24:48;;;;;;;6.57;3.10;;;10.30;99.90;;;9.49;100.00;102011.91;4184807;28;20032;-81
2023/10/08 03:26:55;;;;;;;7.53;3.55;;;10.30;99.90;;;9.47;100.00;102000.63;4185123;28;20049;-80
2023/10/08 03:28:57;;;;;;;5.10;3.20;;;10.20;99.90;;;9.47;100.00;102000.63;4182859;28;20056;-81
2023/10/08 03:31:04;;;;;;;5.28;3.30;;;10.20;99.90;;;9.46;100.00;102006.88;4183391;28;20069;-81
2023/10/08 03:33:10;;;;;;;6.18;3.60;;;10.20;99.90;;;9.42;100.00;102010.69;4171860;28;20533;-81
2023/10/08 03:35:12;;;;;;;5.38;3.35;;;10.20;99.90;;;9.38;100.00;102009.25;4184829;28;20025;-80
2023/10/08 03:37:22;;;;;;;5.05;3.08;;;10.20;99.90;;;9.35;100.00;102014.75;4184866;28;20027;-80
2023/10/08 03:39:24;;;;;;;6.03;3.28;;;10.10;99.90;;;9.30;100.00;102011.63;4183018;28;20115;-80
2023/10/08 03:41:29;;;;;;;5.30;3.92;;;10.10;99.90;;;9.28;100.00;102008.28;4193554;28;20056;-80
2023/10/08 03:43:47;;;;;;;5.07;3.10;;;10.00;99.90;;;9.22;100.00;102008.75;4178801;28;20036;-80
2023/10/08 03:45:54;;;;;;;5.55;3.08;;;10.00;99.90;;;9.21;100.00;102007.06;4187891;28;20024;-80
2023/10/08 03:48:11;;;;;;;6.18;3.67;;;10.00;99.90;;;9.22;100.00;102011.38;4186574;28;20103;-80
2023/10/08 03:50:17;;;;;;;5.55;3.38;;;10.00;99.90;;;9.18;100.00;102007.28;4187741;28;20049;-81
2023/10/08 03:52:23;;;;;;;6.18;3.72;;;10.00;99.90;;;9.17;100.00;102016.16;4186176;28;20090;-81
2023/10/08 03:54:34;;;;;;;5.57;3.33;;;9.90;99.90;;;9.16;100.00;102025.84;4175493;28;20032;-81
2023/10/08 03:56:36;;;;;;;5.55;3.85;;;9.90;99.90;;;9.13;100.00;102020.81;4187921;28;20039;-81
2023/10/08 03:58:46;;;;;;;5.35;3.40;;;9.90;99.90;;;9.17;100.00;102021.44;4187156;28;20044;-80
2023/10/08 04:00:47;;;;;;;8.48;5.10;;;9.90;99.90;;;9.16;100.00;102020.59;4187275;28;20021;-80
2023/10/08 04:02:55;;;;;;;6.25;3.50;;;9.90;99.90;;;9.21;100.00;102015.81;4187701;28;20021;-80
2023/10/08 04:04:59;;;;;;;8.88;3.92;;;9.90;99.90;;;9.23;100.00;102021.78;4187637;28;20052;-81
2023/10/08 04:07:24;;;;;;;5.40;3.92;;;10.00;99.90;;;9.26;100.00;102023.34;4186582;28;20041;-80
2023/10/08 04:11:30;;;;;;;9.05;4.30;;;10.00;99.90;;;9.20;100.00;102027.28;4186216;28;20025;-81
2023/10/08 04:13:31;;;;;;;6.07;3.30;;;10.00;99.90;;;9.20;100.00;102034.38;4185808;28;20072;-81
2023/10/08 04:15:31;;;;;;;6.28;4.03;;;10.00;99.90;;;9.18;100.00;102028.34;4170958;28;20477;-81
2023/10/08 04:17:43;;;;;;;8.18;3.17;;;9.90;99.90;;;9.18;100.00;102028.34;4179180;28;20402;-81
2023/10/08 04:19:44;;;;;;;9.10;3.67;;;9.90;99.90;;;9.24;100.00;102025.25;4185039;28;20025;-80
2023/10/08 04:21:49;;;;;;;10.95;4.50;;;10.00;99.90;;;9.29;100.00;102028.38;4187177;28;20060;-80
2023/10/08 04:23:51;;;;;;;8.25;4.97;;;10.00;99.90;;;9.34;100.00;102021.00;4187373;28;20046;-81
2023/10/08 04:25:54;;;;;;;6.07;4.25;;;10.00;99.90;;;9.36;100.00;102021.69;4187159;28;20053;-80
2023/10/08 04:27:59;;;;;;;7.47;3.83;;;10.10;99.90;;;9.36;100.00;102022.53;4185866;28;20033;-80
2023/10/08 04:30:00;;;;;;;8.20;4.10;;;10.10;99.90;;;9.34;100.00;102034.16;4169581;28;20033;-80
2023/10/08 04:32:02;;;;;;;6.93;4.47;;;10.10;99.90;;;9.27;100.00;102025.03;4194902;28;20087;-80
2023/10/08 04:34:22;;;;;;;6.45;4.28;;;10.00;99.90;;;9.24;100.00;102031.38;4163667;28;20021;-81
2023/10/08 04:36:23;;;;;;;9.73;3.90;;;10.00;99.90;;;9.21;100.00;102028.13;4186937;28;20036;-81
2023/10/08 04:38:26;;;;;;;9.73;3.90;;;10.00;99.90;;;9.24;100.00;102038.44;4185857;28;20021;-81
2023/10/08 04:40:33;;;;;;;6.43;3.65;;;10.00;99.90;;;9.27;100.00;102033.78;4185582;28;20075;-80
2023/10/08 04:42:37;;;;;;;6.65;3.40;;;10.00;99.90;;;9.26;100.00;102036.50;4186971;28;20033;-80
2023/10/08 04:44:41;;;;;;;6.25;4.10;;;10.00;99.90;;;9.24;100.00;102047.16;4201957;28;20025;-80
2023/10/08 04:46:46;;;;;;;7.10;4.05;;;10.00;99.90;;;9.17;100.00;102037.22;4185613;28;20031;-81
2023/10/08 04:48:51;;;;;;;6.40;3.65;;;10.00;99.90;;;9.12;100.00;102044.63;4187070;28;20029;-80
2023/10/08 04:50:58;;;;;;;6.25;3.55;;;9.90;99.90;;;9.08;100.00;102033.47;4184733;28;20148;-80
2023/10/08 04:52:59;;;;;;;7.25;3.78;;;9.90;99.90;;;9.15;100.00;102033.84;4185092;28;20072;-81
2023/10/08 04:55:12;;;;;;;9.63;4.45;;;9.80;99.90;;;9.26;100.00;102023.34;4179826;28;20036;-81
2023/10/08 04:57:16;;;;;;;9.50;5.15;;;9.90;99.90;;;9.38;100.00;102025.03;4185191;28;20095;-80
2023/10/08 04:59:21;;;;;;;7.25;4.03;;;10.00;99.90;;;9.39;100.00;102026.72;4186646;28;20033;-81
2023/10/08 05:01:38;;;;;;;5.78;3.60;;;10.10;99.90;;;9.32;100.00;102012.34;4186640;28;20412;-80
2023/10/08 05:03:49;;;;;;;6.32;3.67;;;10.10;99.90;;;9.27;100.00;102014.50;4184388;28;20132;-80
2023/10/08 05:06:08;;;;;;;6.57;3.40;;;10.00;99.90;;;9.24;100.00;102014.72;4186777;28;20029;-80
2023/10/08 05:08:28;;;;;;;5.85;3.00;;;10.00;99.90;;;9.20;100.00;102018.56;4201834;28;20474;-80
2023/10/08 05:16:44;;;;;;;7.68;3.70;;;9.80;99.90;;;9.05;100.00;102020.53;4185150;28;20075;-81
2023/10/08 05:19:06;;;;;;;8.15;3.80;;;9.80;99.90;;;9.04;100.00;102015.41;4175622;28;20488;-80
2023/10/08 05:21:25;;;;;;;7.30;3.33;;;9.80;99.90;;;9.00;100.00;102006.88;4186327;28;20021;-81
2023/10/08 05:25:40;;;;;;;6.53;3.95;;;9.80;99.90;;;8.93;100.00;102010.94;4177691;28;20037;-80
2023/10/08 05:30:15;;;;;;;5.68;3.63;;;9.70;99.90;;;8.91;100.00;102007.56;4184193;28;20025;-81
2023/10/08 05:33:06;;;;;;;6.38;3.70;;;9.70;99.90;;;8.94;100.00;102012.63;4186206;28;20031;-81
2023/10/08 05:34:42;;;;;;;4.95;2.83;;;9.70;99.90;;;8.96;100.00;102007.25;4188353;28;20055;-81
2023/10/08 05:37:32;;;;;;;6.57;3.20;;;9.70;99.90;;;9.01;100.00;102016.47;4168213;28;20026;-81
2023/10/08 05:41:28;;;;;;;5.30;3.05;;;9.80;99.90;;;8.94;100.00;102017.88;4183163;28;20060;-81
2023/10/08 05:45:52;;;;;;;5.68;3.30;;;9.60;99.90;;;8.84;100.00;102020.34;4186068;28;20025;-80
2023/10/08 05:52:40;;;;;;;5.57;3.28;;;9.60;99.90;;;8.84;100.00;102015.09;4184668;28;20033;-80
2023/10/08 05:54:57;;;;;;;8.40;3.97;;;9.60;99.90;;;8.83;100.00;102012.59;4176018;28;20033;-80
2023/10/08 05:59:17;;;;;;;7.95;3.53;;;9.60;99.90;;;8.81;100.00;102017.13;4184094;28;20033;-81
2023/10/08 06:01:40;;;;;;;7.90;4.05;;;9.60;99.90;;;8.87;100.00;102009.59;4183868;28;20091;-81
2023/10/08 06:08:15;;;;;;;5.88;3.47;;;9.60;99.90;;;8.85;100.00;102015.94;4181720;28;20417;-82
2023/10/08 06:12:44;;;;;;;6.72;3.90;;;9.60;99.90;;;8.80;100.00;102015.44;4184672;28;20032;-82
2023/10/08 06:17:44;;;;;;;6.85;3.97;;;9.60;99.90;;;8.81;100.00;102017.94;4162492;28;20408;-81
2023/10/08 06:19:45;;;;;;;6.55;3.85;;;9.60;99.90;;;8.80;100.00;102026.81;4181199;28;20422;-81
2023/10/08 06:21:45;;;;;;;5.93;4.07;;;9.60;99.90;;;8.78;100.00;102031.31;4200663;28;20028;-82
2023/10/08 06:23:47;;;;;;;7.03;4.53;;;9.60;99.90;;;8.76;100.00;102030.59;4185446;28;20036;-82
2023/10/08 06:25:54;;;;;;;7.22;4.22;;;9.50;99.90;;;8.77;100.00;102021.78;4185473;28;20017;-82
2023/10/08 06:27:55;;;;;;;6.35;3.70;;;9.50;99.90;;;8.79;100.00;102030.38;4183501;28;20047;-82
2023/10/08 06:29:56;;;;;;;6.63;3.85;;;9.50;99.90;;;8.84;100.00;102027.44;4184231;28;20021;-81
2023/10/08 06:32:02;;;;;;;6.45;3.70;;;9.60;99.90;;;8.89;100.00;102027.91;4185574;28;20042;-81
2023/10/08 06:34:03;;;;;;;6.25;3.80;;;9.60;99.90;;;8.93;100.00;102023.28;4183948;28;20031;-81
2023/10/08 06:38:14;;;;;;;6.57;4.00;;;9.60;99.90;;;8.88;100.00;102032.34;4183614;28;20025;-81
2023/10/08 06:42:37;;;;;;;8.05;3.72;;;9.60;99.90;;;8.85;100.00;102043.09;4182588;28;20029;-82
2023/10/08 06:44:42;;;;;;;7.18;4.57;;;9.60;99.90;;;8.88;100.00;102048.13;4185055;28;20036;-81
2023/10/08 06:46:43;;;;;;;5.28;3.30;;;9.60;99.90;;;8.94;100.00;102043.34;4185485;28;20450;-80
2023/10/08 06:48:45;;;;;;;10.48;3.47;;;9.60;99.90;;;8.96;100.00;102050.16;4184907;28;20033;-81
2023/10/08 06:50:51;;;;;;;4.72;3.63;;;9.70;99.90;;;8.99;100.00;102049.94;4183648;28;20043;-80
2023/10/08 06:52:54;;;;;;;4.80;3.20;;;9.70;99.90;;;9.07;100.00;102041.50;4183602;28;20103;-81
2023/10/08 06:54:55;;;;;;;6.38;4.03;;;9.80;99.90;;;9.09;100.00;102055.38;4185259;28;20029;-81
2023/10/08 06:56:56;;;;;;;6.75;4.07;;;9.80;99.90;;;9.07;100.00;102057.28;4185139;28;20033;-81
2023/10/08 06:58:59;;;;;;;6.90;3.72;;;9.80;99.90;;;9.08;100.00;102048.44;4184719;28;20035;-81
2023/10/08 07:01:04;;;;;;;6.15;3.53;;;9.80;99.90;;;9.06;100.00;102040.66;4185177;28;20032;-81
2023/10/08 07:03:10;;;;;;;10.00;4.10;;;9.80;99.90;;;9.13;100.00;102051.56;4183863;28;20026;-81
2023/10/08 07:05:11;;;;;;;5.03;3.60;;;9.90;99.90;;;9.14;100.00;102058.53;4183705;28;20025;-81
2023/10/08 07:07:18;;;;;;;6.63;3.72;;;9.90;99.90;;;9.20;100.00;102058.06;4183686;28;20021;-81
2023/10/08 07:11:29;;;;;;;4.35;3.05;;;9.90;99.90;;;9.26;100.00;102054.94;4185231;28;20021;-81
2023/10/08 07:13:29;;;;;;;6.40;4.10;;;10.00;99.90;;;9.34;100.00;102057.84;4190227;28;20036;-81
2023/10/08 07:15:31;;;;;;;5.72;4.03;;;10.00;99.90;;;9.44;100.00;102059.66;4181620;28;20021;-81
2023/10/08 07:17:40;;;;;;;5.53;3.47;;;10.10;99.90;;;9.50;100.00;102055.72;4179303;28;20017;-81
2023/10/08 07:19:41;;;;;;;8.57;4.22;;;10.20;99.90;;;9.59;100.00;102055.00;4203630;28;20415;-81
2023/10/08 07:21:45;;;;;;;10.35;5.32;;;10.30;99.90;;;9.66;100.00;102050.97;4188444;28;20459;-80
2023/10/08 07:23:56;;;;;;;6.70;4.53;;;10.30;99.90;;;9.77;100.00;102055.38;4186754;28;20075;-81
2023/10/08 07:26:11;;;;;;;7.60;4.40;;;10.40;99.90;;;9.86;100.00;102049.41;4182839;28;20025;-81
2023/10/08 07:28:12;;;;;;;6.22;3.63;;;10.50;99.90;;;9.89;100.00;102055.28;4187812;28;20060;-81
2023/10/08 07:30:26;;;;;;;9.02;4.30;;;10.60;99.90;;;9.97;100.00;102050.25;4187980;28;20033;-81
2023/10/08 07:32:27;;;;;;;7.88;4.13;;;10.70;99.90;;;10.06;100.00;102050.50;4185552;28;20032;-81
2023/10/08 07:34:31;;;;;;;6.38;3.22;;;10.70;99.90;;;10.09;100.00;102050.25;4185663;28;20053;-80
2023/10/08 07:36:32;;;;;;;7.00;3.90;;;10.80;99.90;;;10.12;100.00;102047.38;4187861;28;20029;-81
2023/10/08 07:38:34;;;;;;;6.15;3.70;;;10.80;99.90;;;10.16;100.00;102059.38;4187053;28;20404;-81
2023/10/08 07:40:37;;;;;;;6.47;2.80;;;10.90;99.90;;;10.19;100.00;102051.22;4186598;28;20044;-81
2023/10/08 07:42:38;;;;;;;5.10;3.45;;;10.90;99.90;;;10.24;100.00;102057.00;4184935;28;20053;-81
2023/10/08 07:44:39;;;;;;;4.60;3.25;;;11.00;99.90;;;10.28;100.00;102058.41;4175903;28;20025;-81
2023/10/08 07:46:40;;;;;;;6.50;3.83;;;11.00;99.90;;;10.33;100.00;102057.09;4186766;28;20025;-81
2023/10/08 07:48:44;;;;;;;8.13;4.60;;;11.00;99.90;;;10.40;100.00;102062.69;4187909;28;20025;-80
2023/10/08 07:50:46;;;;;;;6.22;4.22;;;11.10;99.90;;;10.47;100.00;102061.25;4186342;28;20032;-81
2023/10/08 07:52:46;;;;;;;7.25;3.47;;;11.20;99.90;;;10.54;100.00;102059.81;4176031;28;20067;-80
2023/10/08 07:54:48;;;;;;;6.45;3.33;;;11.30;99.90;;;10.59;100.00;102055.00;4187916;28;20029;-81
2023/10/08 07:57:00;;;;;;;6.60;3.83;;;11.30;99.90;;;10.63;100.00;102058.22;4186567;28;20025;-81
2023/10/08 07:59:00;;;;;;;8.10;3.92;;;11.30;99.90;;;10.67;100.00;102057.00;4184913;28;20068;-80
2023/10/08 08:01:06;;;;;;;4.90;3.42;;;11.40;99.90;;;10.74;100.00;102069.59;4175544;28;20036;-81
2023/10/08 08:03:07;;;;;;;6.25;3.55;;;11.50;99.90;;;10.76;100.00;102062.38;4186441;28;20037;-81
2023/10/08 08:05:08;;;;;;;6.07;3.88;;;11.50;99.90;;;10.88;100.00;102063.19;4186317;28;20024;-81
2023/10/08 08:07:15;;;;;;;5.93;4.00;;;11.60;99.90;;;10.93;100.00;102072.38;4187505;28;20025;-81
2023/10/08 08:09:19;;;;;;;6.05;3.45;;;11.60;99.90;;;11.01;100.00;102064.69;4186599;28;20025;-81
2023/10/08 08:11:25;;;;;;;6.07;3.95;;;11.70;99.90;;;11.01;100.00;102055.94;4187476;28;20185;-81
2023/10/08 08:13:27;;;;;;;7.32;3.85;;;11.80;99.90;;;11.13;100.00;102068.13;4187138;28;20052;-81
2023/10/08 08:15:29;;;;;;;6.68;3.90;;;11.80;99.90;;;11.18;100.00;102065.94;4187478;28;20020;-81
2023/10/08 08:17:30;;;;;;;8.70;4.55;;;11.90;99.90;;;11.25;100.00;102068.91;4186227;28;20021;-81
2023/10/08 08:19:31;;;;;;;7.10;3.85;;;12.00;99.90;;;11.34;100.00;102070.78;4182859;28;20032;-81
2023/10/08 08:21:32;;;;;;;6.60;3.83;;;12.10;99.90;;;11.42;100.00;102070.97;4185973;28;20016;-81
2023/10/08 08:23:33;;;;;;;5.60;3.72;;;12.10;99.90;;;11.49;100.00;102066.84;4186507;28;20040;-80
2023/10/08 08:28:01;;;;;;;5.78;3.60;;;12.30;99.90;;;11.67;100.00;102073.22;4184519;28;20120;-80
2023/10/08 08:30:15;;;;;;;7.88;3.95;;;12.40;99.90;;;11.72;100.00;102080.78;4186048;28;20017;-81
2023/10/08 08:32:21;;;;;;;8.23;4.10;;;12.50;99.90;;;11.79;100.00;102068.72;4184452;28;20110;-81
2023/10/08 08:34:23;;;;;;;6.63;4.20;;;12.50;99.90;;;11.88;100.00;102070.56;4169869;28;20492;-81
2023/10/08 08:36:27;;;;;;;8.02;4.32;;;12.60;99.90;;;11.95;100.00;102069.06;4184542;28;20029;-80
2023/10/08 08:38:32;;;;;;;7.13;3.75;;;12.70;99.90;;;12.07;100.00;102076.78;4185841;28;20033;-80
2023/10/08 08:40:33;;;;;;;6.25;3.97;;;12.80;99.90;;;12.15;100.00;102076.97;4181955;28;20128;-81
2023/10/08 08:42:35;;;;;;;6.20;3.53;;;12.90;99.90;;;12.24;100.00;102077.13;4202121;28;20415;-81
2023/10/08 08:44:45;;;;;;;9.68;4.28;;;13.00;99.90;;;12.27;100.00;102072.41;4185594;28;20020;-81
2023/10/08 08:46:47;;;;;;;5.95;3.95;;;13.10;99.90;;;12.39;100.00;102081.06;4185717;28;20029;-81
2023/10/08 08:48:49;;;;;;;5.90;3.63;;;13.20;99.90;;;12.48;100.00;102074.97;4185932;28;20389;-81
2023/10/08 08:50:51;;;;;;;5.45;3.42;;;13.20;99.90;;;12.58;100.00;102086.41;4185740;28;20029;-80
2023/10/08 08:52:51;;;;;;;4.07;3.28;;;13.30;99.90;;;12.68;100.00;102089.91;4169058;28;20026;-81
2023/10/08 08:54:52;;;;;;;7.15;4.38;;;13.40;99.90;;;12.74;100.00;102081.41;4178761;28;20511;-81
2023/10/08 08:56:55;;;;;;;6.30;3.45;;;13.50;99.90;;;12.86;100.00;102090.06;4185549;28;20035;-80
2023/10/08 08:58:59;;;;;;;7.05;4.32;;;13.60;99.90;;;12.92;100.00;102082.41;4186257;28;20024;-80
2023/10/08 09:01:03;;;;;;;8.93;4.07;;;13.70;99.90;;;13.01;100.00;102091.34;4185401;28;20228;-81
2023/10/08 09:03:07;;;;;;;9.10;4.25;;;13.80;99.90;;;13.10;100.00;102080.78;4185306;28;20083;-81
2023/10/08 09:05:33;;;;;;;5.90;4.10;;;13.90;99.90;;;13.22;100.00;102092.06;4182640;28;20028;-81
2023/10/08 09:07:35;;;;;;;5.55;3.15;;;14.00;99.90;;;13.37;100.00;102100.44;4177491;28;20040;-81
2023/10/08 09:09:44;;;;;;;6.90;4.10;;;14.10;99.90;;;13.47;100.00;102093.31;4186636;28;20025;-81
2023/10/08 09:11:45;;;;;;;5.20;3.28;;;14.20;99.90;;;13.56;100.00;102100.41;4186456;28;20033;-81
2023/10/08 09:13:46;;;;;;;6.20;3.92;;;14.30;99.90;;;13.64;100.00;102098.72;4186521;28;20052;-81
2023/10/08 09:15:47;;;;;;;9.68;3.95;;;14.40;99.90;;;13.73;100.00;102102.31;4186412;28;20021;-81
2023/10/08 09:17:49;;;;;;;6.47;3.25;;;14.50;99.90;;;13.84;100.00;102096.84;4185333;28;20025;-81
2023/10/08 09:19:53;;;;;;;7.70;3.40;;;14.60;99.90;;;13.99;100.00;102102.50;4184118;28;20484;-81
2023/10/08 09:22:04;;;;;;;6.47;3.55;;;14.80;99.90;;;14.10;100.00;102097.03;4201602;28;20025;-81
2023/10/08 09:24:10;;;;;;;4.55;2.88;;;14.90;99.90;;;14.20;100.00;102096.00;4201662;28;20628;-81